createdAt,value
2018-03-20T00:00:18.253Z,0
2018-03-20T00:01:18.834Z,0
2018-03-20T00:02:19.453Z,0
2018-03-20T00:03:20.029Z,0
2018-03-20T00:04:20.603Z,0
2018-03-20T00:05:21.180Z,0
2018-03-20T00:06:21.806Z,0
2018-03-20T00:07:22.432Z,0
2018-03-20T00:08:23.008Z,0
2018-03-20T00:09:23.585Z,0
2018-03-20T00:10:24.315Z,0
2018-03-20T00:11:24.885Z,0
2018-03-20T00:12:25.462Z,0
2018-03-20T00:13:26.040Z,0
2018-03-20T00:14:26.618Z,0
2018-03-20T00:15:27.197Z,0
2018-03-20T00:16:27.776Z,0
2018-03-20T00:17:28.354Z,0
2018-03-20T00:18:28.930Z,0
2018-03-20T00:19:29.506Z,0
2018-03-20T00:20:30.085Z,0
2018-03-20T00:21:30.757Z,0
2018-03-20T00:22:31.332Z,0
2018-03-20T00:23:31.907Z,0
2018-03-20T00:24:32.484Z,0
2018-03-20T00:25:33.109Z,0
2018-03-20T00:26:33.694Z,0
2018-03-20T00:27:34.263Z,0
2018-03-20T00:28:34.848Z,0
2018-03-20T00:29:35.420Z,0
2018-03-20T00:30:36.198Z,0
2018-03-20T00:31:36.973Z,0
2018-03-20T00:32:37.650Z,0
2018-03-20T00:33:38.226Z,0
2018-03-20T00:34:38.805Z,0
2018-03-20T00:35:39.382Z,0
2018-03-20T00:36:39.958Z,0
2018-03-20T00:37:40.576Z,0
2018-03-20T00:38:41.151Z,0
2018-03-20T00:39:41.727Z,0
2018-03-20T00:40:42.303Z,0
2018-03-20T00:41:42.879Z,0
2018-03-20T00:42:43.457Z,0
2018-03-20T00:43:44.036Z,0
2018-03-20T00:44:44.612Z,0
2018-03-20T00:45:45.240Z,0
2018-03-20T00:46:45.815Z,0
2018-03-20T00:47:46.392Z,0
2018-03-20T00:48:47.018Z,0
2018-03-20T00:49:47.600Z,0
2018-03-20T00:50:48.176Z,0
2018-03-20T00:51:48.751Z,0
2018-03-20T00:52:49.326Z,0
2018-03-20T00:53:49.954Z,0
2018-03-20T00:54:50.532Z,0
2018-03-20T00:55:51.110Z,0
2018-03-20T00:56:51.687Z,0
2018-03-20T00:57:52.264Z,0
2018-03-20T00:58:52.840Z,0
2018-03-20T00:59:53.416Z,0
2018-03-20T01:00:53.994Z,0
2018-03-20T01:01:54.568Z,0
2018-03-20T01:02:55.196Z,0
2018-03-20T01:03:55.777Z,0
2018-03-20T01:04:56.498Z,0
2018-03-20T01:05:57.073Z,0
2018-03-20T01:06:57.648Z,0
2018-03-20T01:07:58.223Z,0
2018-03-20T01:08:58.848Z,0
2018-03-20T01:09:59.423Z,0
2018-03-20T01:11:00.009Z,0
2018-03-20T01:12:00.579Z,0
2018-03-20T01:13:01.155Z,0
2018-03-20T01:14:01.732Z,0
2018-03-20T01:15:02.307Z,0
2018-03-20T01:16:02.932Z,0
2018-03-20T01:17:03.511Z,0
2018-03-20T01:18:04.089Z,0
2018-03-20T01:19:04.721Z,0
2018-03-20T01:20:05.292Z,0
2018-03-20T01:21:05.866Z,0
2018-03-20T01:22:06.441Z,0
2018-03-20T01:23:07.067Z,0
2018-03-20T01:24:07.792Z,0
2018-03-20T01:25:08.367Z,0
2018-03-20T01:26:08.944Z,0
2018-03-20T01:27:09.520Z,0
2018-03-20T01:28:10.097Z,0
2018-03-20T01:29:10.672Z,0
2018-03-20T01:30:11.247Z,0
2018-03-20T01:31:11.973Z,0
2018-03-20T01:32:12.550Z,0
2018-03-20T01:33:13.126Z,0
2018-03-20T01:34:13.702Z,0
2018-03-20T01:35:14.278Z,0
2018-03-20T01:36:14.856Z,0
2018-03-20T01:37:15.434Z,0
2018-03-20T01:38:16.012Z,0
2018-03-20T01:39:16.588Z,0
2018-03-20T01:40:17.316Z,0
2018-03-20T01:41:17.891Z,0
2018-03-20T01:42:18.466Z,0
2018-03-20T01:43:19.094Z,0
2018-03-20T01:44:19.672Z,0
2018-03-20T01:45:20.249Z,0
2018-03-20T01:46:20.824Z,0
2018-03-20T01:47:21.452Z,0
2018-03-20T01:48:22.029Z,0
2018-03-20T01:49:22.606Z,0
2018-03-20T01:50:23.183Z,0
2018-03-20T01:51:23.756Z,0
2018-03-20T01:52:24.331Z,0
2018-03-20T01:53:24.912Z,0
2018-03-20T01:54:25.541Z,0
2018-03-20T01:55:26.058Z,0
2018-03-20T01:56:26.632Z,0
2018-03-20T01:57:27.213Z,0
2018-03-20T01:58:27.789Z,0
2018-03-20T01:59:28.409Z,0
2018-03-20T02:00:28.986Z,0
2018-03-20T02:01:29.564Z,0
2018-03-20T02:02:30.142Z,0
2018-03-20T02:03:30.768Z,0
2018-03-20T02:04:31.342Z,0
2018-03-20T02:05:31.971Z,0
2018-03-20T02:06:32.546Z,0
2018-03-20T02:07:33.122Z,0
2018-03-20T02:08:33.700Z,0
2018-03-20T02:09:34.275Z,0
2018-03-20T02:10:34.854Z,0
2018-03-20T02:11:35.480Z,0
2018-03-20T02:12:36.108Z,0
2018-03-20T02:13:36.684Z,0
2018-03-20T02:14:37.262Z,0
2018-03-20T02:15:37.890Z,0
2018-03-20T02:16:38.463Z,0
2018-03-20T02:17:39.039Z,0
2018-03-20T02:18:39.613Z,0
2018-03-20T02:19:40.189Z,0
2018-03-20T02:20:40.814Z,0
2018-03-20T02:21:41.392Z,0
2018-03-20T02:22:41.968Z,0
2018-03-20T02:23:42.545Z,0
2018-03-20T02:24:43.122Z,0
2018-03-20T02:25:43.697Z,0
2018-03-20T02:26:44.272Z,0
2018-03-20T02:27:44.852Z,0
2018-03-20T02:28:45.424Z,0
2018-03-20T02:29:46.048Z,0
2018-03-20T02:30:46.624Z,0
2018-03-20T02:31:47.200Z,0
2018-03-20T02:32:47.832Z,0
2018-03-20T02:33:48.398Z,0
2018-03-20T02:34:48.972Z,0
2018-03-20T02:35:49.549Z,0
2018-03-20T02:36:50.174Z,0
2018-03-20T02:37:50.791Z,0
2018-03-20T02:38:51.371Z,0
2018-03-20T02:39:51.943Z,0
2018-03-20T02:40:52.521Z,0
2018-03-20T02:41:53.100Z,0
2018-03-20T02:42:53.674Z,0
2018-03-20T02:43:54.256Z,0
2018-03-20T02:44:54.827Z,0
2018-03-20T02:45:55.403Z,0
2018-03-20T02:46:55.979Z,0
2018-03-20T02:47:56.608Z,0
2018-03-20T02:48:57.234Z,0
2018-03-20T02:49:57.817Z,0
2018-03-20T02:50:58.388Z,0
2018-03-20T02:51:58.965Z,0
2018-03-20T02:52:59.545Z,0
2018-03-20T02:54:00.120Z,0
2018-03-20T02:55:00.696Z,0
2018-03-20T02:56:01.271Z,0
2018-03-20T02:57:01.848Z,0
2018-03-20T02:58:02.475Z,0
2018-03-20T02:59:03.052Z,0
2018-03-20T03:00:03.627Z,0
2018-03-20T03:01:04.203Z,0
2018-03-20T03:02:04.779Z,0
2018-03-20T03:03:05.355Z,0
2018-03-20T03:04:05.932Z,0
2018-03-20T03:05:06.505Z,0
2018-03-20T03:06:07.232Z,0
2018-03-20T03:07:07.808Z,0
2018-03-20T03:08:08.425Z,0
2018-03-20T03:09:08.961Z,0
2018-03-20T03:10:09.587Z,0
2018-03-20T03:11:10.166Z,0
2018-03-20T03:12:10.738Z,0
2018-03-20T03:13:11.320Z,0
2018-03-20T03:14:11.897Z,0
2018-03-20T03:15:12.625Z,0
2018-03-20T03:16:13.201Z,0
2018-03-20T03:17:13.777Z,0
2018-03-20T03:18:14.353Z,0
2018-03-20T03:19:14.927Z,0
2018-03-20T03:20:15.505Z,0
2018-03-20T03:21:16.080Z,0
2018-03-20T03:22:16.706Z,0
2018-03-20T03:23:17.284Z,0
2018-03-20T03:24:17.860Z,0
2018-03-20T03:25:18.437Z,0
2018-03-20T03:26:19.213Z,0
2018-03-20T03:27:19.790Z,0
2018-03-20T03:28:20.366Z,0
2018-03-20T03:29:20.942Z,0
2018-03-20T03:30:21.568Z,0
2018-03-20T03:31:22.199Z,0
2018-03-20T03:32:22.813Z,0
2018-03-20T03:33:23.391Z,0
2018-03-20T03:34:23.967Z,0
2018-03-20T03:35:24.538Z,0
2018-03-20T03:36:25.113Z,0
2018-03-20T03:37:25.697Z,0
2018-03-20T03:38:26.266Z,0
2018-03-20T03:39:26.840Z,0
2018-03-20T03:40:27.417Z,0
2018-03-20T03:41:27.993Z,0
2018-03-20T03:42:28.570Z,0
2018-03-20T03:43:29.148Z,0
2018-03-20T03:44:29.723Z,0
2018-03-20T03:45:30.303Z,0
2018-03-20T03:46:30.927Z,0
2018-03-20T03:47:31.554Z,0
2018-03-20T03:48:32.282Z,0
2018-03-20T03:49:32.860Z,0
2018-03-20T03:50:33.433Z,0
2018-03-20T03:51:34.009Z,0
2018-03-20T03:52:34.584Z,0
2018-03-20T03:53:35.159Z,0
2018-03-20T03:54:35.789Z,0
2018-03-20T03:55:36.361Z,0
2018-03-20T03:56:36.937Z,0
2018-03-20T03:57:37.516Z,0
2018-03-20T03:58:38.091Z,0
2018-03-20T03:59:38.665Z,0
2018-03-20T04:00:39.241Z,0
2018-03-20T04:01:39.868Z,0
2018-03-20T04:02:40.444Z,0
2018-03-20T04:03:41.021Z,0
2018-03-20T04:04:41.688Z,0
2018-03-20T04:05:42.264Z,0
2018-03-20T04:06:42.891Z,0
2018-03-20T04:07:43.465Z,0
2018-03-20T04:08:44.042Z,0
2018-03-20T04:09:44.616Z,0
2018-03-20T04:10:45.192Z,0
2018-03-20T04:11:45.769Z,0
2018-03-20T04:12:46.386Z,0
2018-03-20T04:13:46.962Z,0
2018-03-20T04:14:47.539Z,0
2018-03-20T04:15:48.117Z,0
2018-03-20T04:16:48.692Z,0
2018-03-20T04:17:49.270Z,0
2018-03-20T04:18:49.902Z,0
2018-03-20T04:19:50.473Z,0
2018-03-20T04:20:51.052Z,0
2018-03-20T04:21:51.677Z,0
2018-03-20T04:22:52.304Z,0
2018-03-20T04:23:52.883Z,0
2018-03-20T04:24:53.466Z,0
2018-03-20T04:25:54.044Z,0
2018-03-20T04:26:54.622Z,0
2018-03-20T04:27:55.249Z,0
2018-03-20T04:28:55.824Z,0
2018-03-20T04:29:56.400Z,0
2018-03-20T04:30:56.976Z,0
2018-03-20T04:31:57.552Z,0
2018-03-20T04:32:58.131Z,0
2018-03-20T04:33:58.711Z,0
2018-03-20T04:34:59.280Z,0
2018-03-20T04:35:59.855Z,0
2018-03-20T04:37:00.431Z,0
2018-03-20T04:38:01.059Z,0
2018-03-20T04:39:01.637Z,0
2018-03-20T04:40:02.263Z,0
2018-03-20T04:41:02.889Z,0
2018-03-20T04:42:03.465Z,0
2018-03-20T04:43:04.041Z,0
2018-03-20T04:44:04.620Z,0
2018-03-20T04:45:05.251Z,0
2018-03-20T04:46:05.865Z,0
2018-03-20T04:47:06.442Z,0
2018-03-20T04:48:07.016Z,0
2018-03-20T04:49:07.592Z,0
2018-03-20T04:50:08.169Z,0
2018-03-20T04:51:08.800Z,0
2018-03-20T04:52:09.419Z,0
2018-03-20T04:53:09.998Z,0
2018-03-20T04:54:10.572Z,0
2018-03-20T04:55:11.148Z,0
2018-03-20T04:56:11.882Z,0
2018-03-20T04:57:12.490Z,0
2018-03-20T04:58:13.118Z,0
2018-03-20T04:59:13.774Z,0
2018-03-20T05:00:14.329Z,0
2018-03-20T05:01:14.896Z,0
2018-03-20T05:02:15.477Z,0
2018-03-20T05:03:16.048Z,0
2018-03-20T05:04:16.625Z,0
2018-03-20T05:05:17.204Z,0
2018-03-20T05:06:17.778Z,0
2018-03-20T05:07:18.358Z,0
2018-03-20T05:08:18.935Z,0
2018-03-20T05:09:19.509Z,0
2018-03-20T05:10:20.083Z,0
2018-03-20T05:11:20.658Z,0
2018-03-20T05:12:21.382Z,0
2018-03-20T05:13:21.957Z,0
2018-03-20T05:14:22.533Z,0
2018-03-20T05:15:23.111Z,0
2018-03-20T05:16:23.686Z,0
2018-03-20T05:17:24.261Z,0
2018-03-20T05:18:24.887Z,0
2018-03-20T05:19:25.511Z,0
2018-03-20T05:20:26.085Z,0
2018-03-20T05:21:26.660Z,0
2018-03-20T05:22:27.238Z,0
2018-03-20T05:23:27.855Z,0
2018-03-20T05:24:28.433Z,0
2018-03-20T05:25:29.009Z,0
2018-03-20T05:26:29.586Z,0
2018-03-20T05:27:30.163Z,0
2018-03-20T05:28:30.740Z,0
2018-03-20T05:29:31.316Z,0
2018-03-20T05:30:31.944Z,0
2018-03-20T05:31:32.518Z,0
2018-03-20T05:32:33.092Z,0
2018-03-20T05:33:33.718Z,0
2018-03-20T05:34:34.295Z,0
2018-03-20T05:35:34.871Z,0
2018-03-20T05:36:35.497Z,0
2018-03-20T05:37:36.074Z,0
2018-03-20T05:38:36.649Z,0
2018-03-20T05:39:37.228Z,0
2018-03-20T05:40:37.802Z,0
2018-03-20T05:41:38.430Z,0
2018-03-20T05:42:39.005Z,0
2018-03-20T05:43:39.582Z,0
2018-03-20T05:44:40.161Z,0
2018-03-20T05:45:40.734Z,0
2018-03-20T05:46:41.298Z,0
2018-03-20T05:47:41.917Z,0
2018-03-20T05:48:42.484Z,0
2018-03-20T05:49:43.053Z,0
2018-03-20T05:50:43.672Z,0
2018-03-20T05:51:44.242Z,0
2018-03-20T05:52:44.812Z,0
2018-03-20T05:53:45.434Z,0
2018-03-20T05:54:45.999Z,0
2018-03-20T05:55:46.569Z,0
2018-03-20T05:56:47.188Z,0
2018-03-20T05:57:47.758Z,0
2018-03-20T05:58:48.328Z,0
2018-03-20T05:59:48.897Z,0
2018-03-20T06:00:49.467Z,0
2018-03-20T06:01:50.037Z,0
2018-03-20T06:02:50.647Z,0
2018-03-20T06:03:51.217Z,0
2018-03-20T06:04:51.839Z,0
2018-03-20T06:05:52.409Z,0
2018-03-20T06:06:52.980Z,0
2018-03-20T06:07:53.551Z,0
2018-03-20T06:08:54.121Z,0
2018-03-20T06:09:54.742Z,0
2018-03-20T06:10:55.313Z,0
2018-03-20T06:11:56.038Z,0
2018-03-20T06:12:56.605Z,0
2018-03-20T06:13:57.176Z,0
2018-03-20T06:14:57.744Z,0
2018-03-20T06:15:58.316Z,0
2018-03-20T06:16:58.886Z,0
2018-03-20T06:17:59.457Z,0
2018-03-20T06:19:00.030Z,0
2018-03-20T06:20:00.600Z,0
2018-03-20T06:21:01.170Z,0
2018-03-20T06:22:01.836Z,0
2018-03-20T06:23:02.404Z,0
2018-03-20T06:24:02.977Z,0
2018-03-20T06:25:03.549Z,0
2018-03-20T06:26:04.119Z,0
2018-03-20T06:27:04.691Z,0
2018-03-20T06:28:05.266Z,0
2018-03-20T06:29:05.886Z,0
2018-03-20T06:30:06.457Z,0
2018-03-20T06:31:07.077Z,0
2018-03-20T06:32:07.697Z,0
2018-03-20T06:33:08.268Z,0
2018-03-20T06:34:08.839Z,0
2018-03-20T06:35:09.461Z,0
2018-03-20T06:36:10.031Z,0
2018-03-20T06:37:10.603Z,0
2018-03-20T06:38:11.181Z,0
2018-03-20T06:39:11.743Z,0
2018-03-20T06:40:12.314Z,0
2018-03-20T06:41:12.887Z,0
2018-03-20T06:42:13.458Z,0
2018-03-20T06:43:14.028Z,0
2018-03-20T06:44:14.600Z,0
2018-03-20T06:45:15.172Z,0
2018-03-20T06:46:15.741Z,0
2018-03-20T06:47:16.464Z,0
2018-03-20T06:48:17.037Z,0
2018-03-20T06:49:17.607Z,0
2018-03-20T06:50:18.183Z,0
2018-03-20T06:51:18.843Z,0
2018-03-20T06:52:19.412Z,0
2018-03-20T06:53:19.986Z,0
2018-03-20T06:54:20.558Z,0
2018-03-20T06:55:21.277Z,0
2018-03-20T06:56:21.849Z,0
2018-03-20T06:57:22.419Z,0
2018-03-20T06:58:22.991Z,0
2018-03-20T06:59:23.612Z,0
2018-03-20T07:00:24.176Z,0
2018-03-20T07:01:24.752Z,0
2018-03-20T07:02:25.318Z,0
2018-03-20T07:03:25.940Z,0
2018-03-20T07:04:26.512Z,0
2018-03-20T07:05:27.082Z,0
2018-03-20T07:06:27.652Z,0
2018-03-20T07:07:28.222Z,0
2018-03-20T07:08:28.793Z,0
2018-03-20T07:09:29.363Z,0
2018-03-20T07:10:29.983Z,0
2018-03-20T07:11:30.555Z,0
2018-03-20T07:12:31.218Z,0
2018-03-20T07:13:31.790Z,0
2018-03-20T07:14:32.402Z,0
2018-03-20T07:15:32.973Z,0
2018-03-20T07:16:33.544Z,0
2018-03-20T07:17:34.114Z,0
2018-03-20T07:18:34.687Z,0
2018-03-20T07:19:35.258Z,0
2018-03-20T07:20:35.828Z,0
2018-03-20T07:21:36.400Z,0
2018-03-20T07:22:37.058Z,0
2018-03-20T07:23:37.593Z,0
2018-03-20T07:24:38.165Z,4
2018-03-20T07:25:38.785Z,4
2018-03-20T07:26:39.359Z,4
2018-03-20T07:27:39.970Z,4
2018-03-20T07:28:40.544Z,4
2018-03-20T07:29:41.116Z,4
2018-03-20T07:30:41.839Z,4
2018-03-20T07:31:42.451Z,4
2018-03-20T07:32:43.022Z,0
2018-03-20T07:33:43.592Z,4
2018-03-20T07:34:44.217Z,4
2018-03-20T07:35:44.827Z,4
2018-03-20T07:36:45.397Z,4
2018-03-20T07:37:46.018Z,4
2018-03-20T07:38:46.587Z,4
2018-03-20T07:39:47.160Z,4
2018-03-20T07:40:47.733Z,4
2018-03-20T07:41:48.353Z,4
2018-03-20T07:42:48.923Z,4
2018-03-20T07:43:49.493Z,4
2018-03-20T07:44:50.064Z,4
2018-03-20T07:45:50.633Z,4
2018-03-20T07:46:51.253Z,8
2018-03-20T07:47:51.874Z,8
2018-03-20T07:48:52.445Z,8
2018-03-20T07:49:53.017Z,8
2018-03-20T07:50:53.638Z,8
2018-03-20T07:51:54.210Z,8
2018-03-20T07:52:54.781Z,4
2018-03-20T07:53:55.352Z,4
2018-03-20T07:54:55.924Z,4
2018-03-20T07:55:56.495Z,4
2018-03-20T07:56:57.118Z,4
2018-03-20T07:57:57.690Z,4
2018-03-20T07:58:58.308Z,4
2018-03-20T07:59:58.878Z,4
2018-03-20T08:00:59.448Z,4
2018-03-20T08:02:00.020Z,4
2018-03-20T08:03:00.590Z,4
2018-03-20T08:04:01.159Z,8
2018-03-20T08:05:01.781Z,8
2018-03-20T08:06:02.352Z,8
2018-03-20T08:07:02.922Z,8
2018-03-20T08:08:03.493Z,4
2018-03-20T08:09:04.062Z,4
2018-03-20T08:10:04.633Z,8
2018-03-20T08:11:05.204Z,8
2018-03-20T08:12:05.774Z,8
2018-03-20T08:13:06.434Z,8
2018-03-20T08:14:07.018Z,8
2018-03-20T08:15:07.590Z,8
2018-03-20T08:16:08.160Z,8
2018-03-20T08:17:08.730Z,8
2018-03-20T08:18:09.302Z,8
2018-03-20T08:19:09.902Z,8
2018-03-20T08:20:10.445Z,8
2018-03-20T08:21:11.015Z,8
2018-03-20T08:22:11.587Z,8
2018-03-20T08:23:12.162Z,8
2018-03-20T08:24:12.730Z,8
2018-03-20T08:25:13.300Z,8
2018-03-20T08:26:13.923Z,8
2018-03-20T08:27:14.496Z,8
2018-03-20T08:28:15.109Z,8
2018-03-20T08:29:15.702Z,8
2018-03-20T08:30:16.252Z,8
2018-03-20T08:31:16.874Z,8
2018-03-20T08:32:17.593Z,8
2018-03-20T08:33:18.165Z,12
2018-03-20T08:34:18.789Z,12
2018-03-20T08:35:19.360Z,12
2018-03-20T08:36:19.933Z,8
2018-03-20T08:37:20.505Z,8
2018-03-20T08:38:21.077Z,8
2018-03-20T08:39:21.646Z,8
2018-03-20T08:40:22.218Z,8
2018-03-20T08:41:22.791Z,8
2018-03-20T08:42:23.359Z,12
2018-03-20T08:43:23.932Z,12
2018-03-20T08:44:24.508Z,12
2018-03-20T08:45:25.076Z,8
2018-03-20T08:46:25.694Z,8
2018-03-20T08:47:26.266Z,8
2018-03-20T08:48:26.838Z,12
2018-03-20T08:49:27.412Z,12
2018-03-20T08:50:27.983Z,12
2018-03-20T08:51:28.555Z,12
2018-03-20T08:52:29.180Z,12
2018-03-20T08:53:29.751Z,12
2018-03-20T08:54:30.376Z,12
2018-03-20T08:55:30.946Z,12
2018-03-20T08:56:31.519Z,12
2018-03-20T08:57:32.090Z,12
2018-03-20T08:58:32.661Z,12
2018-03-20T08:59:33.235Z,12
2018-03-20T09:00:33.845Z,12
2018-03-20T09:01:34.380Z,12
2018-03-20T09:02:34.952Z,12
2018-03-20T09:03:35.522Z,12
2018-03-20T09:04:36.145Z,12
2018-03-20T09:05:36.717Z,12
2018-03-20T09:06:37.293Z,12
2018-03-20T09:07:37.862Z,12
2018-03-20T09:08:38.436Z,12
2018-03-20T09:09:39.008Z,12
2018-03-20T09:10:39.628Z,12
2018-03-20T09:11:40.212Z,12
2018-03-20T09:12:40.772Z,16
2018-03-20T09:13:41.396Z,16
2018-03-20T09:14:41.969Z,16
2018-03-20T09:15:42.548Z,16
2018-03-20T09:16:43.114Z,16
2018-03-20T09:17:43.684Z,16
2018-03-20T09:18:44.305Z,16
2018-03-20T09:19:44.880Z,16
2018-03-20T09:20:45.450Z,16
2018-03-20T09:21:46.022Z,16
2018-03-20T09:22:46.592Z,16
2018-03-20T09:23:47.164Z,16
2018-03-20T09:24:47.783Z,16
2018-03-20T09:25:48.358Z,16
2018-03-20T09:26:49.079Z,16
2018-03-20T09:27:49.651Z,16
2018-03-20T09:28:50.223Z,16
2018-03-20T09:29:50.832Z,16
2018-03-20T09:30:51.369Z,16
2018-03-20T09:31:51.941Z,12
2018-03-20T09:32:52.564Z,12
2018-03-20T09:33:53.190Z,12
2018-03-20T09:34:53.803Z,12
2018-03-20T09:35:54.378Z,12
2018-03-20T09:36:54.951Z,12
2018-03-20T09:37:55.522Z,12
2018-03-20T09:38:56.095Z,12
2018-03-20T09:39:56.673Z,12
2018-03-20T09:40:57.246Z,12
2018-03-20T09:41:57.819Z,12
2018-03-20T09:42:58.542Z,12
2018-03-20T09:43:59.164Z,16
2018-03-20T09:44:59.734Z,16
2018-03-20T09:46:00.309Z,16
2018-03-20T09:47:00.922Z,16
2018-03-20T09:48:01.494Z,16
2018-03-20T09:49:02.112Z,16
2018-03-20T09:50:02.690Z,16
2018-03-20T09:51:03.263Z,16
2018-03-20T09:52:03.836Z,16
2018-03-20T09:53:04.456Z,16
2018-03-20T09:54:05.077Z,16
2018-03-20T09:55:05.698Z,16
2018-03-20T09:56:06.269Z,16
2018-03-20T09:57:06.840Z,12
2018-03-20T09:58:07.413Z,12
2018-03-20T09:59:07.986Z,12
2018-03-20T10:00:08.612Z,12
2018-03-20T10:01:09.224Z,12
2018-03-20T10:02:09.794Z,12
2018-03-20T10:03:10.419Z,12
2018-03-20T10:04:10.986Z,8
2018-03-20T10:05:11.557Z,12
2018-03-20T10:06:12.127Z,8
2018-03-20T10:07:12.699Z,16
2018-03-20T10:08:13.271Z,16
2018-03-20T10:09:13.846Z,12
2018-03-20T10:10:14.459Z,16
2018-03-20T10:11:15.083Z,16
2018-03-20T10:12:15.698Z,16
2018-03-20T10:13:16.271Z,16
2018-03-20T10:14:16.842Z,16
2018-03-20T10:15:17.413Z,16
2018-03-20T10:16:17.986Z,16
2018-03-20T10:17:18.560Z,16
2018-03-20T10:18:19.132Z,16
2018-03-20T10:19:19.704Z,16
2018-03-20T10:20:20.376Z,16
2018-03-20T10:21:20.899Z,16
2018-03-20T10:22:21.678Z,16
2018-03-20T10:23:22.247Z,16
2018-03-20T10:24:22.816Z,16
2018-03-20T10:25:23.392Z,16
2018-03-20T10:26:24.009Z,12
2018-03-20T10:27:24.576Z,12
2018-03-20T10:28:25.148Z,12
2018-03-20T10:29:25.769Z,12
2018-03-20T10:30:26.342Z,12
2018-03-20T10:31:26.914Z,12
2018-03-20T10:32:27.488Z,16
2018-03-20T10:33:28.057Z,16
2018-03-20T10:34:28.635Z,16
2018-03-20T10:35:29.202Z,16
2018-03-20T10:36:29.824Z,16
2018-03-20T10:37:30.397Z,16
2018-03-20T10:38:30.970Z,16
2018-03-20T10:39:31.591Z,16
2018-03-20T10:40:32.161Z,16
2018-03-20T10:41:32.741Z,12
2018-03-20T10:42:33.306Z,12
2018-03-20T10:43:33.878Z,16
2018-03-20T10:44:34.452Z,16
2018-03-20T10:45:35.074Z,16
2018-03-20T10:46:35.645Z,16
2018-03-20T10:47:36.218Z,16
2018-03-20T10:48:36.791Z,16
2018-03-20T10:49:37.364Z,16
2018-03-20T10:50:37.938Z,16
2018-03-20T10:51:38.508Z,16
2018-03-20T10:52:39.131Z,16
2018-03-20T10:53:39.705Z,16
2018-03-20T10:54:40.278Z,16
2018-03-20T10:55:40.901Z,16
2018-03-20T10:56:41.525Z,16
2018-03-20T10:57:42.097Z,16
2018-03-20T10:58:42.677Z,16
2018-03-20T10:59:43.294Z,16
2018-03-20T11:00:43.869Z,16
2018-03-20T11:01:44.440Z,16
2018-03-20T11:02:45.012Z,16
2018-03-20T11:03:45.585Z,16
2018-03-20T11:04:46.203Z,16
2018-03-20T11:05:46.775Z,16
2018-03-20T11:06:47.347Z,16
2018-03-20T11:07:47.920Z,16
2018-03-20T11:08:48.493Z,16
2018-03-20T11:09:49.065Z,16
2018-03-20T11:10:49.638Z,16
2018-03-20T11:11:50.260Z,16
2018-03-20T11:12:50.833Z,16
2018-03-20T11:13:51.407Z,20
2018-03-20T11:14:51.979Z,20
2018-03-20T11:15:52.552Z,20
2018-03-20T11:16:53.123Z,20
2018-03-20T11:17:53.704Z,16
2018-03-20T11:18:54.272Z,16
2018-03-20T11:19:54.993Z,16
2018-03-20T11:20:55.716Z,16
2018-03-20T11:21:56.288Z,16
2018-03-20T11:22:56.861Z,16
2018-03-20T11:23:57.435Z,16
2018-03-20T11:24:58.007Z,16
2018-03-20T11:25:58.581Z,16
2018-03-20T11:26:59.154Z,20
2018-03-20T11:27:59.730Z,20
2018-03-20T11:29:00.303Z,20
2018-03-20T11:30:00.873Z,16
2018-03-20T11:31:01.496Z,16
2018-03-20T11:32:02.088Z,20
2018-03-20T11:33:02.642Z,16
2018-03-20T11:34:03.215Z,16
2018-03-20T11:35:03.786Z,16
2018-03-20T11:36:04.359Z,16
2018-03-20T11:37:04.940Z,16
2018-03-20T11:38:05.549Z,16
2018-03-20T11:39:06.122Z,16
2018-03-20T11:40:06.744Z,20
2018-03-20T11:41:07.365Z,20
2018-03-20T11:42:07.938Z,20
2018-03-20T11:43:08.561Z,20
2018-03-20T11:44:09.138Z,20
2018-03-20T11:45:09.750Z,20
2018-03-20T11:46:10.320Z,20
2018-03-20T11:47:10.894Z,16
2018-03-20T11:48:11.465Z,8
2018-03-20T11:49:12.036Z,16
2018-03-20T11:50:12.611Z,16
2018-03-20T11:51:13.184Z,16
2018-03-20T11:52:13.756Z,20
2018-03-20T11:53:14.330Z,20
2018-03-20T11:54:14.902Z,20
2018-03-20T11:55:15.478Z,20
2018-03-20T11:56:16.102Z,20
2018-03-20T11:57:16.729Z,20
2018-03-20T11:58:17.348Z,16
2018-03-20T11:59:17.923Z,20
2018-03-20T12:00:18.495Z,16
2018-03-20T12:01:19.067Z,16
2018-03-20T12:02:19.645Z,16
2018-03-20T12:03:20.214Z,20
2018-03-20T12:04:20.788Z,20
2018-03-20T12:05:21.362Z,20
2018-03-20T12:06:21.933Z,16
2018-03-20T12:07:22.507Z,16
2018-03-20T12:08:23.078Z,16
2018-03-20T12:09:23.653Z,16
2018-03-20T12:10:24.226Z,16
2018-03-20T12:11:24.848Z,20
2018-03-20T12:12:25.421Z,20
2018-03-20T12:13:25.994Z,20
2018-03-20T12:14:26.568Z,20
2018-03-20T12:15:27.192Z,20
2018-03-20T12:16:27.767Z,16
2018-03-20T12:17:28.437Z,20
2018-03-20T12:18:29.007Z,20
2018-03-20T12:19:29.630Z,16
2018-03-20T12:20:30.204Z,8
2018-03-20T12:21:30.775Z,20
2018-03-20T12:22:31.349Z,20
2018-03-20T12:23:31.925Z,20
2018-03-20T12:24:32.498Z,12
2018-03-20T12:25:33.071Z,12
2018-03-20T12:26:33.669Z,8
2018-03-20T12:27:34.212Z,8
2018-03-20T12:28:34.837Z,12
2018-03-20T12:29:35.415Z,16
2018-03-20T12:30:36.083Z,16
2018-03-20T12:31:36.656Z,12
2018-03-20T12:32:37.232Z,20
2018-03-20T12:33:37.805Z,16
2018-03-20T12:34:38.380Z,20
2018-03-20T12:35:39.004Z,16
2018-03-20T12:36:39.580Z,20
2018-03-20T12:37:40.151Z,20
2018-03-20T12:38:40.725Z,20
2018-03-20T12:39:41.301Z,20
2018-03-20T12:40:41.874Z,24
2018-03-20T12:41:42.447Z,20
2018-03-20T12:42:43.119Z,16
2018-03-20T12:43:43.691Z,12
2018-03-20T12:44:44.263Z,12
2018-03-20T12:45:44.833Z,8
2018-03-20T12:46:45.445Z,16
2018-03-20T12:47:45.979Z,20
2018-03-20T12:48:46.551Z,20
2018-03-20T12:49:47.127Z,20
2018-03-20T12:50:47.699Z,20
2018-03-20T12:51:48.273Z,20
2018-03-20T12:52:48.996Z,20
2018-03-20T12:53:49.620Z,20
2018-03-20T12:54:50.191Z,20
2018-03-20T12:55:50.765Z,20
2018-03-20T12:56:51.338Z,20
2018-03-20T12:57:51.910Z,20
2018-03-20T12:58:52.485Z,20
2018-03-20T12:59:53.058Z,20
2018-03-20T13:00:53.688Z,20
2018-03-20T13:01:54.256Z,20
2018-03-20T13:02:54.830Z,16
2018-03-20T13:03:55.403Z,16
2018-03-20T13:04:55.976Z,20
2018-03-20T13:05:56.552Z,12
2018-03-20T13:06:57.124Z,20
2018-03-20T13:07:57.756Z,12
2018-03-20T13:08:58.323Z,24
2018-03-20T13:09:58.898Z,20
2018-03-20T13:10:59.518Z,20
2018-03-20T13:12:00.091Z,12
2018-03-20T13:13:00.663Z,12
2018-03-20T13:14:01.232Z,8
2018-03-20T13:15:01.807Z,12
2018-03-20T13:16:02.379Z,12
2018-03-20T13:17:02.955Z,12
2018-03-20T13:18:03.527Z,12
2018-03-20T13:19:04.101Z,24
2018-03-20T13:20:04.673Z,24
2018-03-20T13:21:05.246Z,20
2018-03-20T13:22:05.869Z,20
2018-03-20T13:23:06.443Z,24
2018-03-20T13:24:07.015Z,24
2018-03-20T13:25:07.589Z,24
2018-03-20T13:26:08.162Z,24
2018-03-20T13:27:08.735Z,24
2018-03-20T13:28:09.360Z,24
2018-03-20T13:29:09.987Z,28
2018-03-20T13:30:10.563Z,24
2018-03-20T13:31:11.176Z,24
2018-03-20T13:32:11.750Z,24
2018-03-20T13:33:12.323Z,24
2018-03-20T13:34:13.057Z,28
2018-03-20T13:35:13.470Z,28
2018-03-20T13:36:14.043Z,24
2018-03-20T13:37:14.618Z,24
2018-03-20T13:38:15.191Z,24
2018-03-20T13:39:15.816Z,24
2018-03-20T13:40:16.389Z,24
2018-03-20T13:41:16.964Z,28
2018-03-20T13:42:17.537Z,28
2018-03-20T13:43:18.108Z,28
2018-03-20T13:44:18.682Z,24
2018-03-20T13:45:19.254Z,24
2018-03-20T13:46:19.876Z,28
2018-03-20T13:47:20.448Z,28
2018-03-20T13:48:21.020Z,28
2018-03-20T13:49:21.593Z,28
2018-03-20T13:50:22.203Z,24
2018-03-20T13:51:22.788Z,28
2018-03-20T13:52:23.361Z,28
2018-03-20T13:53:23.935Z,28
2018-03-20T13:54:24.509Z,28
2018-03-20T13:55:25.084Z,32
2018-03-20T13:56:25.857Z,28
2018-03-20T13:57:26.433Z,28
2018-03-20T13:58:27.007Z,28
2018-03-20T13:59:27.583Z,28
2018-03-20T14:00:28.156Z,28
2018-03-20T14:01:28.730Z,32
2018-03-20T14:02:29.345Z,32
2018-03-20T14:03:29.919Z,28
2018-03-20T14:04:30.542Z,28
2018-03-20T14:05:31.116Z,32
2018-03-20T14:06:31.688Z,32
2018-03-20T14:07:32.262Z,28
2018-03-20T14:08:32.834Z,32
2018-03-20T14:09:33.410Z,32
2018-03-20T14:10:33.983Z,36
2018-03-20T14:11:34.555Z,32
2018-03-20T14:12:35.179Z,32
2018-03-20T14:13:35.750Z,32
2018-03-20T14:14:36.325Z,36
2018-03-20T14:15:36.948Z,36
2018-03-20T14:16:37.523Z,32
2018-03-20T14:17:38.100Z,36
2018-03-20T14:18:38.673Z,36
2018-03-20T14:19:39.294Z,36
2018-03-20T14:20:39.896Z,36
2018-03-20T14:21:40.440Z,36
2018-03-20T14:22:41.013Z,36
2018-03-20T14:23:41.638Z,40
2018-03-20T14:24:42.212Z,36
2018-03-20T14:25:42.837Z,36
2018-03-20T14:26:43.412Z,40
2018-03-20T14:27:43.986Z,40
2018-03-20T14:28:44.561Z,36
2018-03-20T14:29:45.133Z,40
2018-03-20T14:30:45.710Z,40
2018-03-20T14:31:46.334Z,40
2018-03-20T14:32:46.907Z,40
2018-03-20T14:33:47.480Z,40
2018-03-20T14:34:48.100Z,40
2018-03-20T14:35:48.674Z,40
2018-03-20T14:36:49.296Z,40
2018-03-20T14:37:49.869Z,40
2018-03-20T14:38:50.492Z,40
2018-03-20T14:39:51.065Z,44
2018-03-20T14:40:51.638Z,44
2018-03-20T14:41:52.215Z,44
2018-03-20T14:42:52.787Z,44